Time;durP1;ratioP1;P1;durP2;ratioP2;P2;SDS_P1;SDS_P2;PMS_P1;PMS_P2;Temp;Humidity;BMP_temperature;BMP_pressure;BME280_temperature;BME280_humidity;BME280_pressure;Samples;Min_cycle;Max_cycle;Signal;HPM_P1;HPM_P2
2023/05/03 00:00:54;;;;;;;11.20;5.43;;;12.10;75.20;;;;;;5051038;28;20438;-74
2023/05/03 00:03:22;;;;;;;10.33;5.63;;;12.10;75.10;;;;;;5035904;28;20211;-72
2023/05/03 00:05:48;;;;;;;11.53;5.33;;;12.00;75.10;;;;;;5051176;28;20180;-73
2023/05/03 00:08:14;;;;;;;9.83;5.03;;;12.00;75.20;;;;;;5054944;28;20457;-72
2023/05/03 00:10:40;;;;;;;8.77;4.67;;;12.00;75.50;;;;;;5052453;28;20690;-72
2023/05/03 00:13:06;;;;;;;6.20;4.97;;;12.00;75.40;;;;;;5056298;28;20415;-73
2023/05/03 00:15:32;;;;;;;11.63;5.50;;;12.10;75.20;;;;;;5055317;28;20183;-74
2023/05/03 00:17:57;;;;;;;8.77;5.10;;;12.10;75.20;;;;;;5053346;28;20411;-73
2023/05/03 00:20:24;;;;;;;9.47;5.30;;;12.10;75.20;;;;;;5050904;28;20212;-74
2023/05/03 00:22:50;;;;;;;10.23;5.07;;;12.00;75.20;;;;;;5053019;28;20184;-73
2023/05/03 00:25:15;;;;;;;9.97;5.33;;;12.00;75.50;;;;;;5052392;28;20462;-73
2023/05/03 00:27:41;;;;;;;7.87;4.83;;;11.90;75.50;;;;;;5052002;28;20937;-75
2023/05/03 00:30:08;;;;;;;8.97;5.33;;;11.90;75.80;;;;;;5048240;28;20287;-73
2023/05/03 00:32:34;;;;;;;8.80;5.20;;;11.80;75.70;;;;;;5050062;28;20559;-74
2023/05/03 00:34:59;;;;;;;14.43;5.17;;;11.70;76.20;;;;;;5051889;28;20427;-74
2023/05/03 00:37:25;;;;;;;6.80;4.40;;;11.50;76.70;;;;;;5051824;28;20195;-72
2023/05/03 00:39:51;;;;;;;13.43;5.80;;;11.50;77.00;;;;;;5027205;28;20220;-72
2023/05/03 00:42:17;;;;;;;9.90;4.87;;;11.60;77.10;;;;;;5051751;28;20195;-73
2023/05/03 00:44:42;;;;;;;9.97;5.10;;;11.60;77.10;;;;;;5051468;28;20443;-74
2023/05/03 00:47:09;;;;;;;9.70;4.90;;;11.60;77.00;;;;;;5051908;28;20270;-74
2023/05/03 00:49:35;;;;;;;8.73;4.67;;;11.60;77.00;;;;;;5045805;28;20299;-73
2023/05/03 00:52:01;;;;;;;8.83;5.00;;;11.60;77.00;;;;;;5051584;28;20451;-74
2023/05/03 00:54:27;;;;;;;9.43;5.37;;;11.60;77.10;;;;;;5051601;28;20181;-73
2023/05/03 00:56:55;;;;;;;8.30;4.80;;;11.60;77.00;;;;;;5051296;28;20418;-73
2023/05/03 00:59:20;;;;;;;9.30;5.23;;;11.50;77.10;;;;;;5046275;28;21257;-72
2023/05/03 01:01:51;;;;;;;7.20;4.53;;;11.50;77.30;;;;;;5051119;28;20419;-73
2023/05/03 01:04:20;;;;;;;9.47;5.33;;;11.40;77.40;;;;;;5050990;28;20219;-73
2023/05/03 01:07:04;;;;;;;7.97;4.80;;;11.40;77.60;;;;;;5050871;28;20422;-72
2023/05/03 01:09:36;;;;;;;11.53;5.37;;;11.30;77.80;;;;;;5046584;28;20517;-73
2023/05/03 01:12:15;;;;;;;10.47;4.80;;;11.20;78.30;;;;;;5033322;28;20439;-72
2023/05/03 01:15:01;;;;;;;9.33;5.27;;;11.30;78.10;;;;;;5050761;28;20480;-72
2023/05/03 01:17:33;;;;;;;10.23;4.90;;;11.30;78.30;;;;;;5051086;28;20438;-73
2023/05/03 01:20:09;;;;;;;6.90;4.77;;;11.30;78.40;;;;;;5049060;28;20474;-74
2023/05/03 01:22:44;;;;;;;10.23;5.47;;;11.30;78.60;;;;;;5054934;28;20450;-72
2023/05/03 01:25:12;;;;;;;10.27;4.97;;;11.20;78.60;;;;;;5054983;28;20414;-73
2023/05/03 01:27:39;;;;;;;11.33;5.10;;;11.20;78.40;;;;;;5037030;28;20437;-72
2023/05/03 01:30:09;;;;;;;10.20;5.47;;;11.10;78.90;;;;;;5052370;28;20458;-72
2023/05/03 01:32:55;;;;;;;10.93;6.30;;;11.10;78.90;;;;;;5036493;28;20472;-73
2023/05/03 01:35:29;;;;;;;8.13;4.47;;;11.00;78.90;;;;;;5051132;28;20419;-73
2023/05/03 01:37:56;;;;;;;13.70;6.27;;;11.00;79.00;;;;;;5050218;28;20477;-72
2023/05/03 01:40:24;;;;;;;11.70;5.43;;;11.00;79.20;;;;;;5052355;28;20485;-73
2023/05/03 01:42:50;;;;;;;10.83;5.27;;;10.90;79.30;;;;;;5054370;28;20431;-72
2023/05/03 01:45:16;;;;;;;10.27;5.33;;;10.80;79.30;;;;;;5036222;28;20423;-73
2023/05/03 01:47:42;;;;;;;12.07;5.70;;;10.70;79.90;;;;;;5054509;28;20525;-72
2023/05/03 01:50:08;;;;;;;10.57;5.50;;;10.60;80.20;;;;;;5047484;28;21044;-73
2023/05/03 01:52:33;;;;;;;9.60;5.13;;;10.60;80.50;;;;;;5054683;28;20564;-72
2023/05/03 01:54:59;;;;;;;11.23;6.03;;;10.60;80.60;;;;;;5054204;28;20422;-73
2023/05/03 01:57:25;;;;;;;11.87;5.23;;;10.50;80.80;;;;;;5054300;28;20181;-72
2023/05/03 01:59:50;;;;;;;8.70;5.13;;;10.50;80.90;;;;;;5048004;28;20284;-73
2023/05/03 02:02:16;;;;;;;9.13;4.80;;;10.40;81.10;;;;;;5054291;28;20184;-73
2023/05/03 02:04:42;;;;;;;11.37;5.60;;;10.40;81.20;;;;;;5054188;28;20670;-72
2023/05/03 02:07:08;;;;;;;11.10;5.27;;;10.40;81.20;;;;;;5054550;28;20184;-73
2023/05/03 02:09:33;;;;;;;9.67;5.33;;;10.40;81.70;;;;;;5051387;28;20981;-72
2023/05/03 02:11:59;;;;;;;9.70;5.20;;;10.20;81.80;;;;;;5058098;28;20216;-72
2023/05/03 02:14:25;;;;;;;15.53;6.10;;;10.20;81.90;;;;;;5056648;28;20192;-74
2023/05/03 02:16:50;;;;;;;10.10;6.10;;;10.10;82.40;;;;;;5070569;28;20192;-74
2023/05/03 02:19:16;;;;;;;9.70;4.50;;;10.00;82.70;;;;;;5061756;28;20215;-73
2023/05/03 02:21:41;;;;;;;8.07;5.20;;;10.00;82.80;;;;;;5053716;28;20204;-73
2023/05/03 02:24:07;;;;;;;11.40;6.07;;;10.00;83.00;;;;;;5053590;28;20264;-73
2023/05/03 02:26:33;;;;;;;12.80;5.33;;;10.00;83.10;;;;;;5035828;28;20207;-73
2023/05/03 02:28:58;;;;;;;10.90;5.73;;;10.00;83.30;;;;;;5048993;28;20282;-73
2023/05/03 02:31:25;;;;;;;10.40;5.83;;;9.90;83.30;;;;;;5050555;28;20188;-73
2023/05/03 02:33:51;;;;;;;10.47;5.70;;;9.90;83.60;;;;;;5053325;28;20720;-73
2023/05/03 02:36:17;;;;;;;10.70;5.83;;;9.90;83.60;;;;;;5053760;28;20411;-74
2023/05/03 02:38:42;;;;;;;10.63;5.70;;;9.90;83.70;;;;;;5051358;28;20525;-73
2023/05/03 02:41:08;;;;;;;9.20;5.53;;;9.80;83.70;;;;;;5035401;28;20196;-73
2023/05/03 02:43:33;;;;;;;13.03;5.97;;;9.80;84.00;;;;;;5053323;28;20910;-75
2023/05/03 02:45:59;;;;;;;14.87;6.60;;;9.70;84.00;;;;;;5053423;28;20257;-74
2023/05/03 02:48:25;;;;;;;13.60;6.07;;;9.70;84.30;;;;;;5053330;28;20184;-74
2023/05/03 02:50:50;;;;;;;14.40;6.10;;;9.70;84.40;;;;;;5050068;28;20189;-72
2023/05/03 02:53:16;;;;;;;15.23;6.20;;;9.70;84.40;;;;;;5053304;28;20183;-73
2023/05/03 02:55:42;;;;;;;13.37;6.60;;;9.70;84.40;;;;;;5052824;28;20558;-74
2023/05/03 02:58:08;;;;;;;10.40;5.30;;;9.60;84.60;;;;;;5053042;28;20185;-73
2023/05/03 03:00:34;;;;;;;12.20;7.40;;;9.60;84.60;;;;;;5050775;28;20467;-73
2023/05/03 03:03:00;;;;;;;14.30;6.30;;;9.60;84.60;;;;;;5053165;28;20411;-72
2023/05/03 03:05:25;;;;;;;14.80;6.80;;;9.60;84.60;;;;;;5053035;28;20180;-74
2023/05/03 03:07:51;;;;;;;13.77;5.70;;;9.50;84.90;;;;;;5053162;28;20180;-74
2023/05/03 03:10:17;;;;;;;11.33;6.83;;;9.50;84.90;;;;;;5045541;28;20608;-74
2023/05/03 03:12:42;;;;;;;13.23;6.90;;;9.50;84.90;;;;;;5052775;28;20264;-74
2023/05/03 03:15:09;;;;;;;12.73;6.67;;;9.50;85.20;;;;;;5052547;28;20250;-73
2023/05/03 03:17:37;;;;;;;11.27;6.50;;;9.50;85.20;;;;;;5052722;28;20177;-74
2023/05/03 03:20:05;;;;;;;14.17;6.90;;;9.40;85.20;;;;;;5040597;28;21079;-73
2023/05/03 03:22:31;;;;;;;14.60;6.47;;;9.40;85.30;;;;;;5052586;28;20407;-73
2023/05/03 03:24:56;;;;;;;11.63;7.43;;;9.40;85.30;;;;;;5034411;28;20422;-73
2023/05/03 03:27:22;;;;;;;13.97;6.80;;;9.30;85.50;;;;;;5052530;28;20617;-74
2023/05/03 03:29:48;;;;;;;13.27;7.00;;;9.30;85.60;;;;;;5048556;28;20224;-74
2023/05/03 03:32:14;;;;;;;15.00;7.20;;;9.20;85.70;;;;;;5052278;28;20778;-72
2023/05/03 03:34:40;;;;;;;18.83;8.17;;;9.20;85.90;;;;;;5052143;28;20473;-73
2023/05/03 03:37:05;;;;;;;13.93;8.20;;;9.20;85.90;;;;;;5052500;28;20187;-74
2023/05/03 03:39:31;;;;;;;20.43;9.07;;;9.20;86.00;;;;;;5050189;28;20224;-74
2023/05/03 03:41:57;;;;;;;16.70;8.20;;;9.20;86.20;;;;;;5051445;28;20179;-73
2023/05/03 03:44:22;;;;;;;15.50;7.40;;;9.10;86.30;;;;;;5051975;28;20192;-72
2023/05/03 03:46:48;;;;;;;14.37;7.10;;;9.20;86.60;;;;;;5052338;28;20184;-72
2023/05/03 03:49:13;;;;;;;14.20;7.33;;;9.20;86.50;;;;;;5040274;28;20205;-74
2023/05/03 03:51:39;;;;;;;14.23;7.83;;;9.30;86.20;;;;;;5051828;28;20271;-73
2023/05/03 03:54:05;;;;;;;16.83;8.17;;;9.30;85.90;;;;;;5034236;28;20671;-73
2023/05/03 03:56:30;;;;;;;11.03;6.77;;;9.20;85.70;;;;;;5052117;28;20465;-73
2023/05/03 03:58:56;;;;;;;20.00;8.70;;;9.10;86.20;;;;;;5048791;28;20342;-73
2023/05/03 04:01:22;;;;;;;19.17;9.03;;;9.00;86.20;;;;;;5052257;28;20275;-74
2023/05/03 04:03:48;;;;;;;17.90;8.90;;;9.00;86.60;;;;;;5051788;28;20190;-73
2023/05/03 04:06:13;;;;;;;17.40;8.37;;;8.90;86.90;;;;;;5029607;28;20172;-73
2023/05/03 04:08:39;;;;;;;14.10;7.93;;;9.00;87.00;;;;;;5049998;28;20191;-72
2023/05/03 04:11:10;;;;;;;21.47;8.93;;;9.00;86.90;;;;;;5033798;28;20176;-73
2023/05/03 04:13:36;;;;;;;21.10;9.90;;;9.10;86.60;;;;;;5052354;28;20456;-74
2023/05/03 04:16:02;;;;;;;20.33;9.23;;;9.20;86.30;;;;;;5052238;28;20419;-74
2023/05/03 04:18:27;;;;;;;15.53;8.70;;;9.10;86.00;;;;;;5051342;28;20203;-72
2023/05/03 04:20:53;;;;;;;19.43;9.10;;;9.10;86.00;;;;;;5045694;28;20196;-74
2023/05/03 04:23:18;;;;;;;21.27;8.90;;;9.20;86.20;;;;;;5051839;28;20201;-74
2023/05/03 04:25:47;;;;;;;20.30;8.57;;;9.30;86.00;;;;;;5051708;28;20180;-73
2023/05/03 04:28:14;;;;;;;15.73;8.23;;;9.20;85.60;;;;;;5051904;28;20180;-73
2023/05/03 04:30:40;;;;;;;17.57;8.50;;;9.30;85.70;;;;;;5047414;28;20458;-72
2023/05/03 04:33:07;;;;;;;22.17;9.53;;;9.50;85.30;;;;;;5052117;28;20411;-74
2023/05/03 04:35:34;;;;;;;20.13;9.40;;;9.60;84.60;;;;;;5054405;28;20426;-74
2023/05/03 04:38:00;;;;;;;21.43;9.07;;;9.40;84.40;;;;;;5055574;28;20481;-74
2023/05/03 04:40:26;;;;;;;18.07;8.83;;;9.40;84.90;;;;;;5051197;28;20469;-73
2023/05/03 04:42:51;;;;;;;16.00;8.67;;;9.50;84.90;;;;;;5055299;28;20435;-74
2023/05/03 04:45:17;;;;;;;17.90;9.33;;;9.60;84.60;;;;;;5055700;28;20579;-72
2023/05/03 04:47:43;;;;;;;17.37;9.03;;;9.70;84.30;;;;;;5051832;28;20185;-74
2023/05/03 04:50:09;;;;;;;16.57;7.97;;;9.90;83.60;;;;;;5046395;28;20443;-74
2023/05/03 04:52:35;;;;;;;21.17;10.27;;;9.70;83.30;;;;;;5052207;28;20918;-73
2023/05/03 04:55:02;;;;;;;16.77;8.60;;;9.60;83.10;;;;;;5055633;28;20429;-73
2023/05/03 04:57:28;;;;;;;18.47;8.97;;;9.50;83.70;;;;;;5056743;28;20226;-73
2023/05/03 04:59:54;;;;;;;16.03;8.90;;;9.60;83.70;;;;;;5057156;28;20471;-73
2023/05/03 05:02:20;;;;;;;15.90;9.00;;;9.40;83.80;;;;;;5062196;28;20180;-74
2023/05/03 05:04:45;;;;;;;19.87;9.40;;;9.30;84.70;;;;;;5064736;28;20944;-74
2023/05/03 05:07:12;;;;;;;23.93;9.20;;;9.30;85.00;;;;;;5052387;28;20415;-73
2023/05/03 05:09:38;;;;;;;19.63;9.27;;;9.30;85.20;;;;;;5056786;28;20214;-73
2023/05/03 05:12:04;;;;;;;20.53;9.97;;;9.40;85.20;;;;;;5053518;28;20776;-73
2023/05/03 05:14:30;;;;;;;21.73;9.90;;;9.40;85.20;;;;;;5035317;28;20942;-73
2023/05/03 05:16:56;;;;;;;23.70;10.30;;;9.30;85.00;;;;;;5054249;28;20192;-73
2023/05/03 05:19:22;;;;;;;22.07;10.50;;;9.30;85.00;;;;;;5054268;28;20980;-74
2023/05/03 05:21:48;;;;;;;22.13;10.87;;;9.30;85.60;;;;;;5055519;28;20415;-74
2023/05/03 05:24:13;;;;;;;15.70;9.17;;;9.30;85.50;;;;;;5037523;28;20188;-74
2023/05/03 05:26:41;;;;;;;21.87;10.87;;;9.40;85.70;;;;;;5055678;28;20238;-73
2023/05/03 05:29:07;;;;;;;25.50;10.33;;;9.30;84.90;;;;;;5036126;28;20232;-75
2023/05/03 05:31:33;;;;;;;20.67;9.87;;;9.20;85.30;;;;;;5054832;28;20500;-74
2023/05/03 05:33:59;;;;;;;17.90;9.30;;;9.20;85.90;;;;;;5055137;28;20579;-75
2023/05/03 05:36:26;;;;;;;20.07;9.43;;;9.30;85.90;;;;;;5055257;28;20419;-75
2023/05/03 05:38:51;;;;;;;20.43;9.83;;;9.50;85.90;;;;;;5054441;28;20475;-74
2023/05/03 05:41:17;;;;;;;25.47;9.50;;;9.70;85.30;;;;;;5055381;28;20422;-75
2023/05/03 05:43:43;;;;;;;14.20;7.97;;;9.90;84.40;;;;;;5054607;28;20635;-74
2023/05/03 05:46:09;;;;;;;23.23;10.50;;;9.90;83.70;;;;;;5055107;28;20179;-75
2023/05/03 05:48:35;;;;;;;21.97;10.80;;;9.90;83.40;;;;;;5054685;28;20848;-75
2023/05/03 05:51:00;;;;;;;20.00;10.23;;;9.90;83.10;;;;;;5055048;28;20610;-75
2023/05/03 05:53:27;;;;;;;20.40;9.53;;;9.90;83.60;;;;;;5038396;28;20173;-73
2023/05/03 05:55:53;;;;;;;19.93;9.57;;;10.00;83.30;;;;;;5054776;28;20556;-75
2023/05/03 05:58:19;;;;;;;21.33;9.97;;;10.00;83.00;;;;;;5054365;28;20423;-72
2023/05/03 06:00:44;;;;;;;25.07;10.77;;;10.10;83.10;;;;;;5049707;28;20224;-73
2023/05/03 06:03:10;;;;;;;22.07;10.20;;;10.20;82.80;;;;;;5054463;28;20215;-72
2023/05/03 06:05:35;;;;;;;23.17;9.43;;;10.20;82.40;;;;;;5053371;28;20705;-72
2023/05/03 06:08:01;;;;;;;18.70;9.60;;;10.30;82.40;;;;;;5051341;28;20180;-73
2023/05/03 06:10:27;;;;;;;25.00;11.60;;;10.40;81.90;;;;;;5048421;28;20207;-72
2023/05/03 06:12:52;;;;;;;23.13;10.90;;;10.10;81.50;;;;;;5047131;28;20189;-72
2023/05/03 06:15:18;;;;;;;20.50;9.30;;;10.00;82.50;;;;;;5042909;28;20203;-73
2023/05/03 06:17:44;;;;;;;21.70;8.90;;;10.10;82.50;;;;;;5045047;28;20248;-72
2023/05/03 06:20:12;;;;;;;18.80;9.30;;;10.30;81.90;;;;;;5056694;28;20300;-74
2023/05/03 06:22:38;;;;;;;18.43;9.70;;;10.30;81.70;;;;;;5042449;28;20538;-72
2023/05/03 06:25:04;;;;;;;22.40;10.60;;;10.30;81.80;;;;;;5056484;28;20419;-72
2023/05/03 06:27:30;;;;;;;25.03;11.00;;;10.50;81.50;;;;;;5055420;28;20196;-73
2023/05/03 06:29:56;;;;;;;18.33;10.13;;;10.50;80.90;;;;;;5049815;28;20497;-73
2023/05/03 06:32:22;;;;;;;25.03;10.30;;;10.60;80.90;;;;;;5053596;28;20423;-72
2023/05/03 06:34:48;;;;;;;18.50;10.23;;;10.70;80.90;;;;;;5047819;28;20696;-72
2023/05/03 06:37:14;;;;;;;22.93;10.53;;;10.80;80.30;;;;;;5053945;28;20423;-73
2023/05/03 06:39:40;;;;;;;24.70;11.10;;;10.80;80.20;;;;;;5051340;28;20580;-72
2023/05/03 06:42:06;;;;;;;19.00;10.33;;;10.80;80.00;;;;;;5050421;28;20415;-72
2023/05/03 06:44:32;;;;;;;21.17;10.90;;;10.70;80.20;;;;;;5053129;28;20223;-72
2023/05/03 06:46:57;;;;;;;30.97;12.70;;;10.80;80.30;;;;;;5053367;28;20427;-73
2023/05/03 06:49:23;;;;;;;25.33;10.57;;;10.70;80.20;;;;;;5048752;28;20204;-72
2023/05/03 06:51:49;;;;;;;23.83;10.57;;;10.70;80.60;;;;;;5053128;28;20243;-74
2023/05/03 06:54:14;;;;;;;19.27;10.20;;;10.80;80.50;;;;;;5053025;28;20210;-73
2023/05/03 06:56:40;;;;;;;23.50;10.73;;;10.80;80.80;;;;;;5053357;28;20196;-72
2023/05/03 06:59:07;;;;;;;22.77;10.40;;;11.00;80.30;;;;;;5050927;28;20679;-73
2023/05/03 07:01:33;;;;;;;22.40;10.60;;;11.10;80.20;;;;;;5053495;28;20180;-73
2023/05/03 07:03:59;;;;;;;18.60;9.63;;;11.10;79.90;;;;;;5035528;28;20438;-72
2023/05/03 07:06:25;;;;;;;19.57;10.90;;;11.20;79.60;;;;;;5053302;28;20415;-72
2023/05/03 07:08:52;;;;;;;20.23;11.13;;;11.30;79.30;;;;;;5048338;28;20965;-72
2023/05/03 07:11:23;;;;;;;29.60;12.23;;;11.10;79.60;;;;;;5049749;28;20177;-73
2023/05/03 07:13:50;;;;;;;20.17;10.00;;;11.10;79.60;;;;;;5049965;28;20432;-73
2023/05/03 07:16:16;;;;;;;20.27;10.10;;;11.10;80.00;;;;;;5049206;28;20419;-73
2023/05/03 07:18:42;;;;;;;21.83;10.70;;;11.30;79.70;;;;;;5050397;28;20471;-72
2023/05/03 07:21:08;;;;;;;22.30;12.00;;;11.30;79.20;;;;;;5049153;28;20419;-72
2023/05/03 07:23:33;;;;;;;20.63;10.50;;;11.40;79.20;;;;;;5052875;28;20186;-73
2023/05/03 07:25:59;;;;;;;21.63;10.17;;;11.40;79.20;;;;;;5052356;28;20180;-73
2023/05/03 07:28:24;;;;;;;18.60;9.73;;;11.40;78.90;;;;;;5052769;28;20318;-74
2023/05/03 07:30:51;;;;;;;22.63;11.03;;;11.40;78.90;;;;;;5048081;28;20184;-71
2023/05/03 07:33:17;;;;;;;26.60;12.13;;;11.40;79.00;;;;;;5053034;28;20180;-74
2023/05/03 07:35:45;;;;;;;20.03;10.30;;;11.20;79.70;;;;;;5052662;28;20425;-74
2023/05/03 07:38:11;;;;;;;20.83;10.30;;;11.20;80.20;;;;;;5053258;28;20427;-74
2023/05/03 07:40:36;;;;;;;22.70;9.77;;;11.50;80.00;;;;;;5050502;28;20498;-73
2023/05/03 07:43:02;;;;;;;28.00;11.67;;;11.60;79.70;;;;;;5053086;28;20508;-73
2023/05/03 07:45:28;;;;;;;23.30;11.40;;;11.80;78.90;;;;;;5053282;28;20216;-73
2023/05/03 07:47:55;;;;;;;17.27;10.03;;;11.90;77.80;;;;;;5055113;28;20268;-72
2023/05/03 07:50:21;;;;;;;22.37;11.13;;;11.80;78.00;;;;;;5051822;28;20295;-73
2023/05/03 07:52:50;;;;;;;22.43;11.30;;;11.90;78.30;;;;;;5055945;28;20462;-73
2023/05/03 07:55:18;;;;;;;19.53;10.60;;;11.90;78.00;;;;;;5054515;28;20909;-73
2023/05/03 07:57:44;;;;;;;16.20;9.53;;;12.00;78.00;;;;;;5053046;28;20451;-71
2023/05/03 08:00:11;;;;;;;19.63;10.33;;;12.20;77.60;;;;;;5049980;28;20502;-73
2023/05/03 08:02:37;;;;;;;17.60;9.67;;;12.30;77.00;;;;;;5052520;28;20185;-72
2023/05/03 08:05:04;;;;;;;21.80;10.50;;;12.30;76.70;;;;;;5034447;28;20423;-73
2023/05/03 08:07:30;;;;;;;18.43;9.87;;;12.50;76.70;;;;;;5052202;28;20523;-72
2023/05/03 08:09:57;;;;;;;22.90;10.10;;;12.40;76.50;;;;;;5033141;28;20516;-73
2023/05/03 08:12:24;;;;;;;15.23;9.30;;;12.50;76.50;;;;;;5052744;28;20478;-72
2023/05/03 08:14:52;;;;;;;20.93;9.87;;;12.60;76.20;;;;;;5052597;28;20913;-73
2023/05/03 08:17:18;;;;;;;17.60;10.20;;;12.70;76.20;;;;;;5052472;28;20997;-73
2023/05/03 08:19:44;;;;;;;19.13;9.60;;;12.70;75.70;;;;;;5046773;28;20493;-72
2023/05/03 08:22:11;;;;;;;25.83;10.70;;;12.70;75.70;;;;;;5052000;28;20431;-73
2023/05/03 08:24:41;;;;;;;23.77;10.17;;;12.60;75.80;;;;;;5051645;28;20177;-72
2023/05/03 08:27:08;;;;;;;18.20;8.97;;;12.70;75.90;;;;;;5052166;28;20433;-73
2023/05/03 08:29:36;;;;;;;17.00;9.93;;;12.90;75.50;;;;;;5048537;28;20840;-72
2023/05/03 08:32:03;;;;;;;20.77;10.50;;;13.10;74.80;;;;;;5051719;28;20423;-73
2023/05/03 08:34:29;;;;;;;15.57;9.30;;;13.10;74.60;;;;;;5051501;28;20439;-73
2023/05/03 08:36:55;;;;;;;21.30;9.50;;;13.10;74.30;;;;;;5051910;28;20422;-74
2023/05/03 08:39:23;;;;;;;18.80;10.43;;;12.90;74.90;;;;;;5046543;28;20475;-73
2023/05/03 08:41:49;;;;;;;20.20;9.90;;;12.90;75.10;;;;;;5051873;28;20468;-74
2023/05/03 08:44:24;;;;;;;21.40;9.50;;;12.90;74.80;;;;;;5052880;28;20474;-74
2023/05/03 08:46:50;;;;;;;18.67;10.53;;;13.00;74.80;;;;;;5047934;28;20419;-73
2023/05/03 08:49:17;;;;;;;17.67;10.13;;;13.00;74.60;;;;;;5046934;28;20463;-73
2023/05/03 08:51:48;;;;;;;21.43;10.50;;;13.10;74.50;;;;;;5051741;28;20180;-74
2023/05/03 08:54:15;;;;;;;20.47;10.33;;;13.10;74.50;;;;;;5052092;28;20538;-73
2023/05/03 08:56:42;;;;;;;18.27;9.90;;;13.30;74.20;;;;;;5034032;28;20436;-73
2023/05/03 08:59:11;;;;;;;19.00;10.60;;;13.30;74.20;;;;;;5047697;28;20994;-73
2023/05/03 09:01:40;;;;;;;19.30;10.37;;;13.50;73.70;;;;;;5052123;28;20490;-71
2023/05/03 09:04:07;;;;;;;18.77;10.50;;;13.60;73.30;;;;;;5053075;28;20782;-74
2023/05/03 09:06:33;;;;;;;21.10;9.60;;;13.50;73.30;;;;;;5053624;28;20431;-73
2023/05/03 09:09:01;;;;;;;13.97;8.20;;;13.70;73.50;;;;;;5050005;28;20465;-73
2023/05/03 09:11:31;;;;;;;19.97;9.13;;;13.90;73.30;;;;;;5054201;28;20432;-72
2023/05/03 09:14:17;;;;;;;17.50;9.00;;;14.20;72.40;;;;;;5054355;28;20420;-71
2023/05/03 09:16:44;;;;;;;19.93;10.30;;;14.50;71.60;;;;;;5053196;28;20501;-71
2023/05/03 09:19:11;;;;;;;19.03;9.90;;;14.60;70.70;;;;;;5051557;28;20478;-72
2023/05/03 09:21:39;;;;;;;17.63;9.20;;;14.70;70.50;;;;;;5053628;28;20480;-72
2023/05/03 09:24:20;;;;;;;17.03;9.50;;;14.60;70.50;;;;;;5054099;28;20512;-72
2023/05/03 09:26:49;;;;;;;15.20;9.17;;;14.50;70.50;;;;;;5052894;28;20441;-72
2023/05/03 09:29:29;;;;;;;15.60;8.90;;;14.60;70.40;;;;;;5048853;28;21161;-70
2023/05/03 09:32:04;;;;;;;15.60;8.67;;;14.90;70.20;;;;;;5045878;28;20913;-72
2023/05/03 09:34:30;;;;;;;15.17;8.63;;;15.10;69.50;;;;;;5051369;28;20916;-72
2023/05/03 09:36:56;;;;;;;21.93;9.20;;;15.40;69.50;;;;;;5051799;28;20425;-73
2023/05/03 09:39:22;;;;;;;16.20;9.77;;;15.60;68.30;;;;;;5049202;28;20502;-72
2023/05/03 09:41:48;;;;;;;18.43;9.60;;;15.30;68.20;;;;;;5054738;28;20449;-72
2023/05/03 09:44:15;;;;;;;14.63;8.50;;;15.10;68.80;;;;;;5055844;28;20317;-71
2023/05/03 09:47:03;;;;;;;10.10;7.67;;;15.20;69.10;;;;;;5059713;28;20430;-71
2023/05/03 09:49:33;;;;;;;16.87;8.67;;;15.50;68.30;;;;;;5053375;28;20467;-73
2023/05/03 09:52:00;;;;;;;16.80;8.53;;;15.60;67.70;;;;;;5061312;28;20426;-71
2023/05/03 09:54:27;;;;;;;17.73;9.17;;;15.60;67.50;;;;;;5064013;28;20422;-73
2023/05/03 09:56:56;;;;;;;10.97;7.90;;;15.70;67.60;;;;;;5061897;28;20837;-71
2023/05/03 09:59:22;;;;;;;17.10;9.50;;;15.60;67.70;;;;;;5062474;28;20474;-73
2023/05/03 10:01:51;;;;;;;14.10;8.07;;;15.70;67.30;;;;;;5040655;28;20423;-73
2023/05/03 10:04:19;;;;;;;13.13;7.40;;;15.70;67.50;;;;;;5041555;28;20461;-72
2023/05/03 10:06:48;;;;;;;16.70;8.60;;;15.70;67.50;;;;;;5057109;28;20426;-72
2023/05/03 10:09:20;;;;;;;16.67;9.53;;;15.80;67.50;;;;;;5051046;28;20474;-71
2023/05/03 10:11:53;;;;;;;15.23;8.67;;;15.70;67.50;;;;;;5054914;28;20538;-71
2023/05/03 10:14:22;;;;;;;16.50;9.93;;;15.80;67.50;;;;;;5054985;28;20429;-73
2023/05/03 10:16:57;;;;;;;19.03;10.37;;;15.50;67.90;;;;;;5051705;28;20482;-71
2023/05/03 10:19:40;;;;;;;14.60;9.17;;;15.70;67.70;;;;;;5051794;28;20477;-71
2023/05/03 10:22:07;;;;;;;14.03;7.90;;;15.90;67.30;;;;;;5055029;28;20825;-72
2023/05/03 10:24:34;;;;;;;18.83;9.80;;;16.50;67.00;;;;;;5054707;28;20428;-72
2023/05/03 10:27:01;;;;;;;14.53;9.30;;;17.10;65.40;;;;;;5038372;28;20436;-72
2023/05/03 10:29:47;;;;;;;12.03;7.50;;;17.20;65.60;;;;;;5054000;28;20493;-72
2023/05/03 10:32:31;;;;;;;14.37;7.47;;;17.20;65.80;;;;;;5052524;28;20419;-72
2023/05/03 10:35:06;;;;;;;15.87;8.10;;;17.20;65.60;;;;;;5055576;28;20965;-72
2023/05/03 10:37:34;;;;;;;14.43;7.53;;;17.20;65.40;;;;;;5057389;28;20454;-72
2023/05/03 10:40:12;;;;;;;13.30;7.47;;;17.10;65.80;;;;;;5052001;28;20487;-73
2023/05/03 10:42:39;;;;;;;17.63;7.30;;;17.10;65.40;;;;;;5057684;28;20418;-73
2023/05/03 10:45:07;;;;;;;10.97;6.93;;;17.20;65.10;;;;;;5055438;28;20445;-72
2023/05/03 10:47:34;;;;;;;13.43;7.20;;;17.50;64.50;;;;;;5055807;28;20421;-73
2023/05/03 10:50:14;;;;;;;10.27;7.50;;;17.60;63.20;;;;;;5053554;28;20461;-73
2023/05/03 10:52:40;;;;;;;10.00;6.10;;;17.40;63.50;;;;;;5036579;28;21140;-72
2023/05/03 10:55:10;;;;;;;9.63;5.67;;;17.70;63.40;;;;;;5055015;28;20431;-72
2023/05/03 10:57:37;;;;;;;12.80;7.03;;;18.20;61.50;;;;;;5053552;28;20590;-71
2023/05/03 11:00:11;;;;;;;10.67;6.70;;;17.80;61.20;;;;;;5048502;28;20503;-71
2023/05/03 11:02:55;;;;;;;13.60;8.20;;;18.10;61.50;;;;;;5054131;28;20512;-72
2023/05/03 11:05:23;;;;;;;12.93;6.93;;;17.80;62.60;;;;;;5055269;28;20413;-72
2023/05/03 11:07:48;;;;;;;11.00;7.30;;;18.10;62.60;;;;;;5051322;28;20413;-72
2023/05/03 11:10:17;;;;;;;14.50;7.77;;;18.50;61.50;;;;;;5049679;28;20467;-73
2023/05/03 11:12:43;;;;;;;10.30;6.63;;;18.80;59.50;;;;;;5054724;28;20180;-73
2023/05/03 11:15:10;;;;;;;8.33;6.00;;;18.60;60.00;;;;;;5054591;28;20449;-72
2023/05/03 11:17:37;;;;;;;11.80;7.07;;;18.60;60.60;;;;;;5055080;28;20193;-72
2023/05/03 11:20:07;;;;;;;12.03;6.87;;;18.40;60.10;;;;;;5032786;28;20536;-72
2023/05/03 11:22:33;;;;;;;11.70;6.97;;;18.30;60.00;;;;;;5055160;28;20836;-72
2023/05/03 11:24:59;;;;;;;14.50;6.50;;;17.80;60.30;;;;;;5054847;28;20512;-72
2023/05/03 11:27:25;;;;;;;9.20;5.60;;;17.90;60.10;;;;;;5054568;28;20453;-72
2023/05/03 11:29:51;;;;;;;10.97;6.93;;;18.00;59.10;;;;;;5052410;28;20841;-72
2023/05/03 11:32:17;;;;;;;9.37;5.80;;;18.10;58.10;;;;;;5054479;28;20720;-72
2023/05/03 11:34:44;;;;;;;10.30;6.43;;;18.20;58.20;;;;;;5054282;28;20422;-72
2023/05/03 11:37:10;;;;;;;10.83;7.03;;;18.30;59.20;;;;;;5032492;28;20191;-72
2023/05/03 11:39:36;;;;;;;9.60;6.40;;;18.30;59.10;;;;;;5051099;28;20525;-72
2023/05/03 11:42:03;;;;;;;8.80;5.80;;;17.80;59.70;;;;;;5054577;28;20564;-71
2023/05/03 11:44:29;;;;;;;8.20;5.77;;;17.90;58.80;;;;;;5036542;28;20888;-74
2023/05/03 11:46:55;;;;;;;10.70;5.60;;;18.00;57.40;;;;;;5054085;28;20421;-72
2023/05/03 11:49:22;;;;;;;49.30;7.43;;;17.70;56.90;;;;;;5050929;28;20454;-73
2023/05/03 11:51:48;;;;;;;7.87;5.10;;;17.60;57.30;;;;;;5053331;28;20419;-73
2023/05/03 11:54:14;;;;;;;9.30;5.73;;;17.80;56.50;;;;;;5055841;28;20481;-72
2023/05/03 11:56:40;;;;;;;11.60;6.10;;;17.80;56.20;;;;;;5056403;28;20230;-73
2023/05/03 11:59:05;;;;;;;9.37;5.63;;;18.00;56.80;;;;;;5052339;28;20583;-73
2023/05/03 12:01:31;;;;;;;12.93;6.73;;;18.40;55.00;;;;;;5054286;28;20270;-73
2023/05/03 12:04:02;;;;;;;10.20;6.50;;;18.30;58.10;;;;;;5053566;28;20191;-72
2023/05/03 12:06:32;;;;;;;14.70;7.53;;;18.50;59.50;;;;;;5055075;28;20779;-72
2023/05/03 12:08:59;;;;;;;10.90;7.40;;;18.20;59.70;;;;;;5033322;28;20465;-73
2023/05/03 12:11:25;;;;;;;17.43;7.83;;;18.00;60.40;;;;;;5052266;28;20421;-75
2023/05/03 12:13:59;;;;;;;13.10;7.03;;;17.90;61.00;;;;;;5054514;28;20579;-74
2023/05/03 12:16:26;;;;;;;8.80;6.17;;;18.40;60.70;;;;;;5037332;28;20277;-74
2023/05/03 12:18:57;;;;;;;10.83;6.47;;;18.60;59.30;;;;;;5052981;28;20483;-73
2023/05/03 12:21:25;;;;;;;13.90;6.50;;;18.30;58.00;;;;;;5056539;28;20412;-72
2023/05/03 12:23:51;;;;;;;7.53;5.80;;;18.20;58.40;;;;;;5058280;28;20420;-74
2023/05/03 12:26:18;;;;;;;10.10;6.27;;;18.20;57.70;;;;;;5040994;28;20574;-73
2023/05/03 12:28:45;;;;;;;11.30;5.70;;;17.90;57.20;;;;;;5056681;28;20781;-73
2023/05/03 12:31:11;;;;;;;10.40;6.50;;;17.60;58.00;;;;;;5056763;28;20412;-72
2023/05/03 12:33:37;;;;;;;8.57;5.67;;;17.70;57.30;;;;;;5059763;28;20415;-72
2023/05/03 12:36:03;;;;;;;9.47;6.20;;;18.00;57.20;;;;;;5059510;28;20559;-75
2023/05/03 12:38:29;;;;;;;10.43;6.23;;;18.20;56.90;;;;;;5054462;28;20210;-72